Time;durP1;ratioP1;P1;durP2;ratioP2;P2;SDS_P1;SDS_P2;PMS_P1;PMS_P2;Temp;Humidity;BMP_temperature;BMP_pressure;BME280_temperature;BME280_humidity;BME280_pressure;Samples;Min_cycle;Max_cycle;Signal;HPM_P1;HPM_P2
2023/05/26 11:07:35;;;;;;;6.45;3.45;;;24.60;49.80;;;;;;2493725;53;23654;-70
2023/05/26 11:10:07;;;;;;;6.15;3.87;;;24.60;50.00;;;;;;2274565;54;20930;-71
2023/05/26 11:12:48;;;;;;;8.20;3.50;;;24.70;50.00;;;;;;2517649;54;20996;-69
2023/05/26 11:18:07;;;;;;;7.15;3.50;;;24.80;49.90;;;;;;2528869;54;21789;-70
2023/05/26 11:20:37;;;;;;;5.55;3.10;;;24.90;50.00;;;;;;2283398;55;20993;-69
2023/05/26 11:23:05;;;;;;;8.73;3.70;;;25.00;49.80;;;;;;2536334;54;20979;-69
2023/05/26 11:25:43;;;;;;;5.55;3.20;;;25.10;49.50;;;;;;2298624;55;21000;-72
2023/05/26 11:28:09;;;;;;;5.35;3.42;;;25.10;49.30;;;;;;2299350;55;20920;-70
2023/05/26 11:30:37;;;;;;;7.00;3.75;;;25.20;49.50;;;;;;2536940;54;20967;-72
2023/05/26 11:33:10;;;;;;;6.35;3.53;;;25.20;49.50;;;;;;2537234;54;21014;-69
2023/05/26 11:35:37;;;;;;;6.95;3.45;;;25.30;49.10;;;;;;2299699;55;21536;-70
2023/05/26 11:38:06;;;;;;;7.57;4.05;;;25.30;49.20;;;;;;2537599;54;21002;-73
2023/05/26 11:40:34;;;;;;;9.00;4.10;;;25.40;49.10;;;;;;2299275;55;20928;-69
2023/05/26 11:43:01;;;;;;;9.95;3.90;;;25.50;49.00;;;;;;2302957;55;21023;-72
2023/05/26 11:45:27;;;;;;;6.18;3.65;;;25.50;48.90;;;;;;2501222;54;21563;-71
2023/05/26 11:47:54;;;;;;;5.97;3.55;;;25.60;48.80;;;;;;2301032;55;21011;-73
2023/05/26 11:50:20;;;;;;;7.22;3.60;;;25.60;48.70;;;;;;2531076;54;21514;-74
2023/05/26 11:52:47;;;;;;;7.50;3.87;;;25.60;48.60;;;;;;2536345;54;20964;-71
2023/05/26 11:55:15;;;;;;;6.05;3.25;;;25.70;48.50;;;;;;2300805;55;20943;-70
2023/05/26 11:57:44;;;;;;;7.75;3.42;;;25.70;48.60;;;;;;2537353;54;20952;-70
2023/05/26 12:00:15;;;;;;;8.38;3.60;;;25.80;48.60;;;;;;2537452;54;20915;-71
2023/05/26 12:02:41;;;;;;;7.47;3.45;;;25.80;48.20;;;;;;2299178;55;21082;-71
2023/05/26 12:05:23;;;;;;;6.15;3.80;;;25.90;48.20;;;;;;2293854;55;21792;-70
2023/05/26 12:08:08;;;;;;;7.50;3.60;;;25.90;47.70;;;;;;2535964;54;21004;-70
2023/05/26 12:10:36;;;;;;;6.82;3.67;;;25.90;47.70;;;;;;2521623;54;21035;-71
2023/05/26 12:13:02;;;;;;;7.18;3.35;;;26.00;48.10;;;;;;2508874;54;20958;-70
2023/05/26 12:15:28;;;;;;;5.35;3.10;;;26.00;48.00;;;;;;2519586;54;20975;-70
2023/05/26 12:17:55;;;;;;;6.35;3.22;;;26.00;47.80;;;;;;2544835;54;20986;-71
2023/05/26 12:20:23;;;;;;;6.70;3.72;;;26.10;47.70;;;;;;2552127;53;20925;-70
2023/05/26 12:23:02;;;;;;;6.00;3.37;;;26.10;47.50;;;;;;2553110;53;21009;-71
2023/05/26 12:25:30;;;;;;;8.38;3.87;;;26.10;47.40;;;;;;2547197;53;21058;-69
2023/05/26 12:27:57;;;;;;;6.50;3.30;;;26.20;47.50;;;;;;2570318;53;20993;-72
2023/05/26 12:30:27;;;;;;;5.70;3.40;;;26.20;47.50;;;;;;2314845;54;22055;-72
2023/05/26 12:32:59;;;;;;;4.97;2.67;;;26.20;47.40;;;;;;2553952;53;20937;-69
2023/05/26 12:35:25;;;;;;;6.65;3.83;;;26.30;47.40;;;;;;2552645;54;21444;-70
2023/05/26 12:38:00;;;;;;;5.87;3.10;;;26.30;47.30;;;;;;2313656;55;21477;-70
2023/05/26 12:40:34;;;;;;;5.70;3.05;;;26.40;46.80;;;;;;2551748;53;20940;-69
2023/05/26 12:43:06;;;;;;;4.80;2.85;;;26.40;47.00;;;;;;2550336;54;20964;-71
2023/05/26 12:45:35;;;;;;;5.55;3.12;;;26.40;46.60;;;;;;2304457;54;21066;-72
2023/05/26 12:48:01;;;;;;;5.97;3.22;;;26.50;46.60;;;;;;2535633;53;21129;-72
2023/05/26 12:50:27;;;;;;;5.10;3.25;;;26.50;46.40;;;;;;2532538;54;20988;-70
2023/05/26 12:52:54;;;;;;;6.97;2.90;;;26.50;46.20;;;;;;2312075;54;21474;-70
2023/05/26 12:55:23;;;;;;;6.65;2.78;;;26.60;46.20;;;;;;2543411;53;20984;-71
2023/05/26 12:57:50;;;;;;;5.95;2.90;;;26.60;46.10;;;;;;2552397;54;21028;-71
2023/05/26 13:00:28;;;;;;;5.03;2.80;;;26.60;45.90;;;;;;2308862;54;20956;-68
2023/05/26 13:02:54;;;;;;;5.82;2.42;;;26.70;45.70;;;;;;2551672;53;21864;-68
2023/05/26 13:05:21;;;;;;;4.90;3.35;;;26.70;45.80;;;;;;2313265;53;21408;-70
2023/05/26 13:07:48;;;;;;;6.12;3.53;;;26.70;45.60;;;;;;2549372;53;20973;-70
2023/05/26 13:10:14;;;;;;;4.85;2.92;;;26.70;45.30;;;;;;2552630;54;20909;-70
2023/05/26 13:12:44;;;;;;;5.35;2.85;;;26.70;45.10;;;;;;2312377;55;21659;-71
2023/05/26 13:15:12;;;;;;;8.32;3.30;;;26.80;45.10;;;;;;2313148;55;21004;-68
2023/05/26 13:17:39;;;;;;;5.40;2.90;;;26.80;45.10;;;;;;2552574;53;20977;-70
2023/05/26 13:20:07;;;;;;;4.75;2.67;;;26.90;44.90;;;;;;2313491;54;20906;-70
2023/05/26 13:22:35;;;;;;;6.10;2.83;;;26.80;44.70;;;;;;2551720;54;21724;-72
2023/05/26 13:25:05;;;;;;;8.35;3.20;;;26.90;44.80;;;;;;2551951;53;20933;-67
2023/05/26 13:27:31;;;;;;;5.37;2.80;;;26.90;45.10;;;;;;2312701;54;20947;-70
2023/05/26 13:30:00;;;;;;;5.50;3.10;;;26.90;45.10;;;;;;2551739;54;20975;-72
2023/05/26 13:32:26;;;;;;;5.93;3.10;;;26.80;44.80;;;;;;2552827;54;20985;-69
2023/05/26 13:34:52;;;;;;;4.87;3.00;;;27.00;44.80;;;;;;2552764;53;21110;-71
2023/05/26 13:37:22;;;;;;;7.00;3.10;;;27.00;44.60;;;;;;2313896;55;20929;-70
2023/05/26 13:39:53;;;;;;;6.27;3.23;;;27.00;44.40;;;;;;2550175;53;20956;-71
2023/05/26 13:42:21;;;;;;;6.80;3.42;;;27.10;44.30;;;;;;2544706;53;21754;-68
2023/05/26 13:44:47;;;;;;;4.93;2.70;;;27.10;44.30;;;;;;2312193;55;20973;-70
2023/05/26 13:47:16;;;;;;;5.57;2.75;;;27.10;44.40;;;;;;2313231;54;20965;-67
2023/05/26 13:49:43;;;;;;;5.32;2.97;;;27.20;44.40;;;;;;2536734;53;20961;-68
2023/05/26 13:52:10;;;;;;;4.87;2.85;;;27.20;44.30;;;;;;2521400;54;21483;-70
2023/05/26 13:54:36;;;;;;;8.00;3.00;;;27.20;44.20;;;;;;2523668;53;21413;-69
2023/05/26 13:57:03;;;;;;;4.65;3.20;;;27.30;44.30;;;;;;2287293;55;20964;-68
2023/05/26 13:59:29;;;;;;;4.60;2.72;;;27.30;44.10;;;;;;2286580;54;20963;-68
2023/05/26 14:01:56;;;;;;;5.03;3.17;;;27.30;44.00;;;;;;2298118;54;20949;-69
2023/05/26 14:04:25;;;;;;;4.97;2.70;;;27.30;43.90;;;;;;2544390;53;21873;-71
2023/05/26 14:06:53;;;;;;;5.72;2.90;;;27.40;43.80;;;;;;2553585;53;21050;-70
2023/05/26 14:09:22;;;;;;;5.45;3.05;;;27.40;43.60;;;;;;2313891;55;21114;-70
2023/05/26 14:11:48;;;;;;;6.07;3.15;;;27.40;43.40;;;;;;2553483;53;21397;-69
2023/05/26 14:14:15;;;;;;;9.40;3.80;;;27.40;43.30;;;;;;2554270;53;20939;-69
2023/05/26 14:16:42;;;;;;;7.18;3.92;;;27.40;43.20;;;;;;2313864;54;21287;-69
2023/05/26 14:19:09;;;;;;;5.28;3.00;;;27.40;43.00;;;;;;2554955;53;20933;-67
2023/05/26 14:21:36;;;;;;;4.50;3.00;;;27.40;43.00;;;;;;2313734;55;20931;-69
2023/05/26 14:24:03;;;;;;;5.50;2.75;;;27.40;43.20;;;;;;2554084;53;20979;-68
2023/05/26 14:26:30;;;;;;;4.97;2.62;;;27.40;43.20;;;;;;2313662;54;20990;-69
2023/05/26 14:28:56;;;;;;;5.85;3.20;;;27.40;43.10;;;;;;2553401;54;21504;-71
2023/05/26 14:31:23;;;;;;;6.78;3.17;;;27.50;43.20;;;;;;2313917;55;21030;-68
2023/05/26 14:33:49;;;;;;;4.50;2.80;;;27.50;43.00;;;;;;2553778;53;20924;-68
2023/05/26 14:36:16;;;;;;;5.53;2.85;;;27.50;42.90;;;;;;2313834;54;20944;-69
2023/05/26 14:38:48;;;;;;;4.22;2.45;;;27.50;43.00;;;;;;2553223;54;21563;-68
2023/05/26 14:41:20;;;;;;;;;;;27.50;42.80;;;;;;2317472;54;20975;-68
2023/05/26 14:43:46;;;;;;;5.00;2.67;;;27.60;43.00;;;;;;2553343;53;20167;-68
2023/05/26 14:46:13;;;;;;;4.75;2.58;;;27.60;42.80;;;;;;2313723;55;21062;-67
2023/05/26 14:48:40;;;;;;;6.47;2.62;;;27.60;42.50;;;;;;2554423;54;20927;-67
2023/05/26 14:51:06;;;;;;;4.60;2.45;;;27.60;42.50;;;;;;2553193;53;20967;-69
2023/05/26 14:53:33;;;;;;;5.93;2.75;;;27.60;42.70;;;;;;2553436;54;20979;-67
2023/05/26 14:55:59;;;;;;;9.15;3.28;;;27.60;42.50;;;;;;2553205;53;20956;-68
2023/05/26 14:58:27;;;;;;;5.87;2.47;;;27.60;42.20;;;;;;2553502;53;20931;-69
2023/05/26 15:00:53;;;;;;;5.95;2.80;;;27.60;42.10;;;;;;2553853;53;20991;-70
2023/05/26 15:03:19;;;;;;;6.15;2.67;;;27.60;42.20;;;;;;2553613;53;21687;-69
2023/05/26 15:06:27;;;;;;;5.20;2.50;;;27.70;42.20;;;;;;2313539;54;20933;-68
2023/05/26 15:08:56;;;;;;;4.10;2.67;;;27.70;42.10;;;;;;2317746;53;20932;-68
2023/05/26 15:11:23;;;;;;;4.78;2.87;;;27.70;41.90;;;;;;2555193;54;21051;-69
2023/05/26 15:13:49;;;;;;;6.70;3.53;;;27.70;41.90;;;;;;2314837;54;21510;-71
2023/05/26 15:16:16;;;;;;;4.70;2.62;;;27.70;41.80;;;;;;2314710;54;20955;-69
2023/05/26 15:18:43;;;;;;;4.05;2.55;;;27.70;41.60;;;;;;2314764;54;21032;-70
2023/05/26 15:21:10;;;;;;;5.93;2.90;;;27.70;41.60;;;;;;2555177;53;20921;-70
2023/05/26 15:23:36;;;;;;;3.65;2.08;;;27.70;41.40;;;;;;2313662;54;21074;-69
2023/05/26 15:26:03;;;;;;;4.70;2.65;;;27.70;41.40;;;;;;2313621;54;20947;-69
2023/05/26 15:28:29;;;;;;;6.00;2.60;;;27.70;41.50;;;;;;2555016;54;20958;-67
2023/05/26 15:30:57;;;;;;;4.65;2.90;;;27.70;41.30;;;;;;2315362;54;21315;-67
2023/05/26 15:33:24;;;;;;;4.53;2.50;;;27.70;41.20;;;;;;2555169;54;20987;-71
2023/05/26 15:35:51;;;;;;;3.55;2.30;;;27.70;41.20;;;;;;2314043;54;21561;-70
2023/05/26 15:38:20;;;;;;;5.05;2.83;;;27.70;41.10;;;;;;2555650;54;21464;-71
2023/05/26 15:40:49;;;;;;;4.62;2.42;;;27.70;40.90;;;;;;2527906;54;20991;-71
2023/05/26 15:43:16;;;;;;;4.47;2.45;;;27.70;40.70;;;;;;2554395;54;20939;-70
2023/05/26 15:45:42;;;;;;;4.97;2.58;;;27.60;40.60;;;;;;2313408;54;21059;-71
2023/05/26 15:48:13;;;;;;;3.85;2.30;;;27.60;40.40;;;;;;2314391;54;21004;-70
2023/05/26 15:50:39;;;;;;;5.10;2.70;;;27.60;40.30;;;;;;2314369;54;21027;-73
2023/05/26 15:53:06;;;;;;;4.20;2.17;;;27.60;40.10;;;;;;2312997;54;20988;-73
2023/05/26 15:55:33;;;;;;;3.90;2.40;;;27.60;40.10;;;;;;2313785;54;20920;-67
2023/05/26 15:57:59;;;;;;;6.87;2.80;;;27.50;40.10;;;;;;2313416;54;21004;-70
2023/05/26 16:00:27;;;;;;;3.85;2.30;;;27.50;40.00;;;;;;2553579;54;21065;-70
2023/05/26 16:02:53;;;;;;;4.87;2.53;;;27.50;40.10;;;;;;2314262;54;20986;-68
2023/05/26 16:05:20;;;;;;;5.55;2.60;;;27.50;40.00;;;;;;2319610;54;21030;-69
2023/05/26 16:07:47;;;;;;;3.95;2.17;;;27.50;39.90;;;;;;2317004;54;21039;-75
2023/05/26 16:10:13;;;;;;;3.95;2.05;;;27.50;39.80;;;;;;2320022;54;20917;-69
2023/05/26 16:12:40;;;;;;;4.18;2.35;;;27.50;40.00;;;;;;2547325;53;20937;-71
2023/05/26 16:15:08;;;;;;;4.28;2.33;;;27.50;39.90;;;;;;2308804;55;20964;-70
2023/05/26 16:17:34;;;;;;;4.37;2.30;;;27.50;39.80;;;;;;2308016;54;21467;-70
2023/05/26 16:20:00;;;;;;;5.25;2.30;;;27.40;39.60;;;;;;2308794;54;20945;-69
2023/05/26 16:22:27;;;;;;;4.72;2.42;;;27.40;39.60;;;;;;2308064;54;20949;-75
2023/05/26 16:24:53;;;;;;;6.07;2.33;;;27.40;39.60;;;;;;2546351;54;20941;-67
2023/05/26 16:27:20;;;;;;;4.50;2.40;;;27.40;39.60;;;;;;2547373;53;21164;-71
2023/05/26 16:29:47;;;;;;;4.50;2.40;;;27.40;39.60;;;;;;2309042;55;20933;-68
2023/05/26 16:32:14;;;;;;;4.97;2.50;;;27.40;39.50;;;;;;2308629;55;20941;-69
2023/05/26 16:34:40;;;;;;;4.45;2.53;;;27.40;39.50;;;;;;2309014;54;21029;-70
2023/05/26 16:37:06;;;;;;;4.93;2.30;;;27.40;39.50;;;;;;2307273;54;20961;-71
2023/05/26 16:39:33;;;;;;;5.12;2.53;;;27.40;39.40;;;;;;2309275;54;20937;-69
2023/05/26 16:42:00;;;;;;;3.92;2.10;;;27.40;39.40;;;;;;2547804;53;20988;-69
2023/05/26 16:44:29;;;;;;;4.30;2.30;;;27.40;39.50;;;;;;2308199;54;21873;-68
2023/05/26 16:46:56;;;;;;;3.95;2.20;;;27.40;39.40;;;;;;2544182;54;21007;-68
2023/05/26 16:49:22;;;;;;;5.28;2.20;;;27.40;40.00;;;;;;2304852;55;20930;-70
2023/05/26 16:51:49;;;;;;;4.72;2.17;;;27.40;39.50;;;;;;2307663;55;20965;-67
2023/05/26 16:54:17;;;;;;;4.80;2.58;;;27.40;39.50;;;;;;2308769;55;21497;-67
2023/05/26 16:56:43;;;;;;;5.07;2.53;;;27.40;39.40;;;;;;2308715;54;21004;-68
2023/05/26 16:59:10;;;;;;;4.60;2.40;;;27.40;39.30;;;;;;2307217;54;20957;-70
2023/05/26 17:01:36;;;;;;;3.80;2.40;;;27.50;39.30;;;;;;2308647;54;20941;-67
2023/05/26 17:04:02;;;;;;;4.07;2.15;;;27.50;39.20;;;;;;2309085;54;20967;-69
2023/05/26 17:06:28;;;;;;;4.00;2.12;;;27.50;39.70;;;;;;2305073;55;20925;-68
2023/05/26 17:08:55;;;;;;;4.95;2.40;;;27.50;39.10;;;;;;2308329;54;20973;-65
2023/05/26 17:11:22;;;;;;;3.42;2.05;;;27.50;39.10;;;;;;2548326;54;20890;-67
2023/05/26 17:13:49;;;;;;;3.47;2.00;;;27.40;39.00;;;;;;2305867;54;20938;-68
2023/05/26 17:16:16;;;;;;;3.70;1.87;;;27.50;39.00;;;;;;2309473;54;20961;-67
2023/05/26 17:18:42;;;;;;;4.93;2.08;;;27.40;38.80;;;;;;2309033;54;20928;-68
2023/05/26 17:21:08;;;;;;;3.67;2.00;;;27.40;38.60;;;;;;2547382;53;21028;-69
2023/05/26 17:23:37;;;;;;;3.92;2.05;;;27.50;38.60;;;;;;2308467;54;20929;-69
2023/05/26 17:26:06;;;;;;;5.15;2.20;;;27.40;38.40;;;;;;2547130;53;21056;-68
2023/05/26 17:28:35;;;;;;;3.37;1.95;;;27.40;38.00;;;;;;2547290;54;20925;-66
2023/05/26 17:31:01;;;;;;;3.15;1.83;;;27.40;38.00;;;;;;2308745;55;20936;-67
2023/05/26 17:33:30;;;;;;;3.90;2.03;;;27.40;38.00;;;;;;2308860;54;20950;-68
2023/05/26 17:35:56;;;;;;;3.40;1.73;;;27.40;38.10;;;;;;2309365;54;21446;-68
2023/05/26 17:38:23;;;;;;;3.70;1.73;;;27.40;38.20;;;;;;2546343;53;21055;-66
2023/05/26 17:40:50;;;;;;;5.18;1.83;;;27.40;38.20;;;;;;2303019;54;21081;-67
2023/05/26 17:43:19;;;;;;;3.47;1.60;;;27.40;38.10;;;;;;2547782;54;20957;-66
2023/05/26 17:45:45;;;;;;;4.07;2.10;;;27.40;38.10;;;;;;2308550;54;21025;-69
2023/05/26 17:48:12;;;;;;;5.40;2.42;;;27.40;38.10;;;;;;2547701;54;21372;-68
2023/05/26 17:50:39;;;;;;;3.83;1.95;;;27.40;37.90;;;;;;2305018;53;20940;-69
2023/05/26 17:53:05;;;;;;;3.62;2.03;;;27.50;38.00;;;;;;2308943;54;20913;-67
2023/05/26 17:55:34;;;;;;;3.47;1.90;;;27.50;38.00;;;;;;2308386;54;21604;-67
2023/05/26 17:58:00;;;;;;;4.43;2.10;;;27.50;38.00;;;;;;2547239;53;21742;-69
2023/05/26 18:00:31;;;;;;;7.47;2.33;;;27.60;38.00;;;;;;2308227;55;20957;-67
2023/05/26 18:02:57;;;;;;;4.10;1.90;;;27.60;37.70;;;;;;2308395;55;20985;-65
2023/05/26 18:05:23;;;;;;;4.10;1.90;;;27.70;37.80;;;;;;2308321;54;20968;-66
2023/05/26 18:07:50;;;;;;;3.33;1.95;;;27.80;37.80;;;;;;2308153;54;20926;-67
2023/05/26 18:10:17;;;;;;;4.25;2.20;;;27.80;37.60;;;;;;2307833;55;21691;-68
2023/05/26 18:12:44;;;;;;;4.80;2.00;;;27.90;37.60;;;;;;2546792;54;21033;-67
2023/05/26 18:15:10;;;;;;;3.33;1.75;;;28.00;37.30;;;;;;2306009;54;21011;-68
2023/05/26 18:17:37;;;;;;;3.58;2.08;;;28.00;37.10;;;;;;2307031;55;20973;-67
2023/05/26 18:20:03;;;;;;;4.30;1.92;;;28.10;37.10;;;;;;2308901;54;21497;-66
2023/05/26 18:22:35;;;;;;;3.92;1.90;;;28.10;36.80;;;;;;2309796;54;20964;-66
2023/05/26 18:25:02;;;;;;;3.50;1.90;;;28.10;36.50;;;;;;2309425;54;20945;-67
2023/05/26 18:27:28;;;;;;;4.03;2.03;;;28.00;36.60;;;;;;2308640;54;21016;-67
2023/05/26 18:29:59;;;;;;;3.78;1.87;;;28.00;36.60;;;;;;2308718;54;20945;-67
2023/05/26 18:32:26;;;;;;;3.25;1.90;;;28.00;36.60;;;;;;2282943;54;21020;-67
2023/05/26 18:34:53;;;;;;;3.20;1.52;;;27.90;36.70;;;;;;2288733;55;21043;-64
2023/05/26 18:37:22;;;;;;;3.80;1.95;;;27.80;36.60;;;;;;2516461;54;21065;-67
2023/05/26 18:39:52;;;;;;;2.90;1.50;;;27.80;36.50;;;;;;2312804;54;20978;-65
2023/05/26 18:42:21;;;;;;;3.95;2.17;;;27.70;36.50;;;;;;2314102;54;20935;-65
2023/05/26 18:44:47;;;;;;;2.87;1.50;;;27.70;36.70;;;;;;2554184;53;20971;-67
2023/05/26 18:47:14;;;;;;;3.03;1.95;;;27.60;36.70;;;;;;2554303;53;21457;-65
2023/05/26 18:49:40;;;;;;;3.65;1.80;;;27.50;36.80;;;;;;2554219;53;20956;-65
2023/05/26 18:52:08;;;;;;;7.00;2.17;;;27.40;36.80;;;;;;2314234;54;21947;-66
2023/05/26 18:54:34;;;;;;;3.37;1.70;;;27.40;36.90;;;;;;2313812;54;20971;-68
2023/05/26 18:57:01;;;;;;;3.42;1.90;;;27.30;36.80;;;;;;2314647;53;20929;-65
2023/05/26 18:59:33;;;;;;;4.07;2.20;;;27.30;36.90;;;;;;2312086;54;21465;-65
2023/05/26 19:02:00;;;;;;;3.10;1.48;;;27.10;36.80;;;;;;2554651;53;20939;-67
2023/05/26 19:04:27;;;;;;;4.15;2.00;;;27.10;36.90;;;;;;2554444;54;20975;-68
2023/05/26 19:06:56;;;;;;;3.47;1.65;;;27.00;36.90;;;;;;2554506;54;20915;-66
2023/05/26 19:09:23;;;;;;;3.78;1.58;;;26.90;36.90;;;;;;2314392;54;20983;-66
2023/05/26 19:11:50;;;;;;;5.18;2.20;;;26.80;37.00;;;;;;2314331;54;21015;-69
2023/05/26 19:14:16;;;;;;;5.05;1.83;;;26.70;37.10;;;;;;2313506;54;20963;-69
2023/05/26 19:16:43;;;;;;;4.22;2.12;;;26.60;37.10;;;;;;2314312;54;20995;-67
2023/05/26 19:19:09;;;;;;;3.58;1.80;;;26.50;37.20;;;;;;2554457;53;21516;-68
2023/05/26 19:21:36;;;;;;;4.03;1.90;;;26.40;37.30;;;;;;2554667;53;20938;-68
2023/05/26 19:24:03;;;;;;;4.12;1.90;;;26.30;37.90;;;;;;2313703;54;21730;-70
2023/05/26 19:26:33;;;;;;;3.40;1.80;;;26.20;37.40;;;;;;2314078;54;20964;-71
2023/05/26 19:29:00;;;;;;;3.08;1.77;;;26.20;37.50;;;;;;2553988;53;20967;-66
2023/05/26 19:31:29;;;;;;;3.33;1.70;;;26.00;37.60;;;;;;2554749;53;20959;-67
2023/05/26 19:33:56;;;;;;;3.60;1.65;;;26.00;37.70;;;;;;2314891;54;20947;-69
2023/05/26 19:36:26;;;;;;;2.92;1.60;;;25.90;37.80;;;;;;2314438;54;21032;-66
2023/05/26 19:38:53;;;;;;;4.05;1.80;;;25.80;37.90;;;;;;2554685;53;20991;-66
2023/05/26 19:41:20;;;;;;;3.37;1.70;;;25.70;37.90;;;;;;2313858;54;21714;-67
2023/05/26 19:43:49;;;;;;;3.65;2.10;;;25.60;38.00;;;;;;2554406;53;21871;-68
2023/05/26 19:46:16;;;;;;;3.87;1.73;;;25.60;38.20;;;;;;2314389;54;20966;-68
2023/05/26 19:48:42;;;;;;;2.83;1.37;;;25.50;38.20;;;;;;2314817;54;21402;-67
2023/05/26 19:51:12;;;;;;;3.75;1.90;;;25.40;38.30;;;;;;2554385;53;20955;-66
2023/05/26 19:53:44;;;;;;;2.85;1.55;;;25.30;38.30;;;;;;2555022;53;20975;-67
2023/05/26 19:56:11;;;;;;;4.10;1.70;;;25.20;38.40;;;;;;2314121;54;20969;-66
2023/05/26 19:58:37;;;;;;;4.15;1.37;;;25.10;38.40;;;;;;2555315;53;21512;-67
2023/05/26 20:01:04;;;;;;;4.57;1.60;;;25.00;38.40;;;;;;2315268;54;21039;-70
2023/05/26 20:03:31;;;;;;;4.60;1.70;;;25.00;38.50;;;;;;2554807;53;20935;-66
2023/05/26 20:05:57;;;;;;;2.62;1.25;;;24.80;38.50;;;;;;2314264;54;20987;-67
2023/05/26 20:08:23;;;;;;;4.85;1.75;;;24.80;38.60;;;;;;2314705;54;21018;-66
2023/05/26 20:10:50;;;;;;;6.25;1.65;;;24.70;38.60;;;;;;2549449;53;20937;-70
2023/05/26 20:13:18;;;;;;;4.82;2.10;;;24.60;38.70;;;;;;2313908;54;21569;-68
2023/05/26 20:15:44;;;;;;;5.57;1.55;;;24.50;38.70;;;;;;2314840;54;20971;-68
2023/05/26 20:18:11;;;;;;;4.50;1.62;;;24.40;38.70;;;;;;2555288;53;20950;-68
2023/05/26 20:20:41;;;;;;;3.83;1.20;;;24.30;38.80;;;;;;2554045;53;20968;-67
2023/05/26 20:23:08;;;;;;;3.90;1.42;;;24.20;38.90;;;;;;2554908;54;21408;-66
2023/05/26 20:25:35;;;;;;;4.72;1.60;;;24.20;39.00;;;;;;2314814;54;20931;-66
2023/05/26 20:28:04;;;;;;;5.53;1.65;;;24.10;39.00;;;;;;2314721;54;21006;-68
2023/05/26 20:30:31;;;;;;;6.00;1.83;;;24.00;39.10;;;;;;2314326;54;20943;-67
2023/05/26 20:32:58;;;;;;;4.32;1.50;;;23.90;39.10;;;;;;2555616;53;21503;-66
2023/05/26 20:35:33;;;;;;;4.25;1.70;;;23.80;39.20;;;;;;2554718;53;20971;-67
2023/05/26 20:38:00;;;;;;;4.30;1.30;;;23.80;39.30;;;;;;2315596;54;20939;-68
2023/05/26 20:40:27;;;;;;;4.20;1.80;;;23.70;39.30;;;;;;2314952;54;21460;-67
2023/05/26 20:42:54;;;;;;;4.43;1.85;;;23.60;39.50;;;;;;2555646;53;21039;-67
2023/05/26 20:45:21;;;;;;;3.92;1.50;;;23.50;39.50;;;;;;2314951;54;20947;-67
2023/05/26 20:47:49;;;;;;;5.00;1.58;;;23.50;39.60;;;;;;2555533;54;21788;-66
2023/05/26 20:50:18;;;;;;;5.25;1.62;;;23.40;39.60;;;;;;2554876;53;20967;-69
2023/05/26 20:52:51;;;;;;;4.37;1.40;;;23.30;39.70;;;;;;2555886;53;20947;-66
2023/05/26 20:55:18;;;;;;;3.55;1.48;;;23.30;39.80;;;;;;2555195;53;20978;-67
2023/05/26 20:57:45;;;;;;;5.30;1.95;;;23.20;39.80;;;;;;2317307;54;20965;-68
2023/05/26 21:00:12;;;;;;;4.25;1.50;;;23.20;40.00;;;;;;2552131;54;21026;-67
2023/05/26 21:02:39;;;;;;;3.60;1.50;;;23.10;40.10;;;;;;2555054;53;21841;-66
2023/05/26 21:05:06;;;;;;;4.28;1.45;;;23.10;40.10;;;;;;2554317;53;20975;-69
2023/05/26 21:07:32;;;;;;;3.62;1.70;;;23.00;40.20;;;;;;2555028;53;21616;-67
2023/05/26 21:09:59;;;;;;;3.95;1.37;;;22.90;40.20;;;;;;2315307;54;20971;-66
2023/05/26 21:12:26;;;;;;;4.05;1.23;;;22.90;40.30;;;;;;2554808;54;20947;-65
2023/05/26 21:14:54;;;;;;;3.90;1.40;;;22.80;40.30;;;;;;2314414;54;20958;-67
2023/05/26 21:17:23;;;;;;;4.05;1.30;;;22.80;40.40;;;;;;2552543;54;21502;-66
2023/05/26 21:19:51;;;;;;;3.67;1.30;;;22.70;40.40;;;;;;2313155;54;20971;-67
2023/05/26 21:22:18;;;;;;;6.03;1.95;;;22.70;40.50;;;;;;2314572;54;20942;-69
2023/05/26 21:24:45;;;;;;;5.32;1.62;;;22.60;40.60;;;;;;2314693;54;20959;-67
2023/05/26 21:27:11;;;;;;;3.20;1.30;;;22.60;40.70;;;;;;2317437;54;21526;-65
2023/05/26 21:29:38;;;;;;;4.28;1.50;;;22.50;40.70;;;;;;2550385;54;21330;-65
2023/05/26 21:32:04;;;;;;;2.70;1.20;;;22.50;40.80;;;;;;2553430;53;20967;-71
2023/05/26 21:34:31;;;;;;;3.22;1.42;;;22.40;40.90;;;;;;2554003;53;20939;-68
2023/05/26 21:36:57;;;;;;;4.93;1.70;;;22.40;41.00;;;;;;2306844;54;20995;-67
2023/05/26 21:39:24;;;;;;;5.03;1.48;;;22.30;41.00;;;;;;2553088;53;20963;-68
2023/05/26 21:41:51;;;;;;;3.80;1.67;;;22.30;41.10;;;;;;2315139;54;21844;-67
2023/05/26 21:44:17;;;;;;;4.95;1.85;;;22.20;41.10;;;;;;2315295;54;20975;-69
2023/05/26 21:46:46;;;;;;;3.85;1.37;;;22.10;41.10;;;;;;2315872;54;20966;-68
2023/05/26 21:49:12;;;;;;;3.75;1.35;;;22.10;41.20;;;;;;2313676;54;21030;-67
2023/05/26 21:51:39;;;;;;;6.12;1.70;;;22.00;41.20;;;;;;2314194;54;21050;-68
2023/05/26 21:54:06;;;;;;;4.43;1.60;;;22.00;41.30;;;;;;2553295;54;20963;-68
2023/05/26 21:56:32;;;;;;;5.80;2.00;;;21.90;41.30;;;;;;2553888;53;21317;-72
2023/05/26 21:58:59;;;;;;;4.95;1.77;;;21.80;41.40;;;;;;2314363;54;20971;-68
2023/05/26 22:01:25;;;;;;;4.18;1.95;;;21.80;41.60;;;;;;2554265;53;20968;-68
2023/05/26 22:03:51;;;;;;;5.32;1.83;;;21.70;41.70;;;;;;2317015;54;21518;-67
2023/05/26 22:06:19;;;;;;;3.70;1.65;;;21.70;41.80;;;;;;2534828;53;21035;-68
2023/05/26 22:08:45;;;;;;;4.45;1.77;;;21.70;41.90;;;;;;2309177;54;20951;-66
2023/05/26 22:11:13;;;;;;;3.87;1.67;;;21.60;41.90;;;;;;2550453;53;20933;-69
2023/05/26 22:13:39;;;;;;;3.22;1.45;;;21.60;42.00;;;;;;2312461;54;21074;-66
2023/05/26 22:16:06;;;;;;;3.53;1.45;;;21.60;42.00;;;;;;2549693;54;21428;-67
2023/05/26 22:18:33;;;;;;;4.85;1.70;;;21.50;42.00;;;;;;2315017;54;20971;-68
2023/05/26 22:21:00;;;;;;;3.83;1.30;;;21.40;42.00;;;;;;2314782;54;20998;-67
2023/05/26 22:23:26;;;;;;;3.33;1.40;;;21.40;42.00;;;;;;2314092;54;21377;-66
2023/05/26 22:25:57;;;;;;;3.40;1.42;;;21.30;42.00;;;;;;2314176;54;21441;-66
2023/05/26 22:28:25;;;;;;;4.10;1.80;;;21.30;42.20;;;;;;2314194;54;21515;-65
2023/05/26 22:31:10;;;;;;;3.10;1.40;;;21.20;42.10;;;;;;2314584;54;21804;-70
2023/05/26 22:33:39;;;;;;;3.47;1.60;;;21.10;42.40;;;;;;2314609;54;21094;-66
2023/05/26 22:36:05;;;;;;;3.53;1.40;;;21.10;42.30;;;;;;2314377;54;20978;-66
2023/05/26 22:38:32;;;;;;;3.58;1.50;;;21.00;42.30;;;;;;2313875;54;20954;-68
2023/05/26 22:40:59;;;;;;;3.33;1.40;;;20.90;42.40;;;;;;2554277;54;21442;-65
2023/05/26 22:43:25;;;;;;;3.87;1.65;;;20.90;42.40;;;;;;2313658;54;20983;-66
2023/05/26 22:45:52;;;;;;;3.22;1.40;;;20.90;42.50;;;;;;2314451;54;21019;-67
2023/05/26 22:48:19;;;;;;;4.25;1.50;;;20.80;42.50;;;;;;2313865;54;21034;-65
2023/05/26 22:50:46;;;;;;;3.58;1.30;;;20.70;42.50;;;;;;2313918;54;21300;-65
2023/05/26 22:53:12;;;;;;;3.20;1.23;;;20.70;42.60;;;;;;2316800;55;21063;-67
2023/05/26 22:55:38;;;;;;;4.35;1.40;;;20.60;42.60;;;;;;2314267;54;22003;-67
2023/05/26 22:58:09;;;;;;;3.33;1.48;;;20.50;42.70;;;;;;2554706;53;20966;-67
2023/05/26 23:00:36;;;;;;;3.62;1.25;;;20.50;42.70;;;;;;2315279;54;21019;-67
2023/05/26 23:03:04;;;;;;;3.62;1.40;;;20.40;42.70;;;;;;2314077;54;20982;-67
2023/05/26 23:05:32;;;;;;;3.72;1.33;;;20.40;42.80;;;;;;2554300;53;20954;-66
2023/05/26 23:07:58;;;;;;;2.83;1.23;;;20.30;42.80;;;;;;2551602;54;21060;-71
2023/05/26 23:10:24;;;;;;;4.97;1.52;;;20.20;42.80;;;;;;2544094;53;20945;-67
2023/05/26 23:12:51;;;;;;;3.90;1.60;;;20.20;42.90;;;;;;2319467;54;21016;-68
2023/05/26 23:15:20;;;;;;;3.70;1.60;;;20.10;43.00;;;;;;2304786;54;21409;-67
2023/05/26 23:17:47;;;;;;;3.70;1.58;;;20.00;43.10;;;;;;2314772;54;20939;-66
2023/05/26 23:20:13;;;;;;;6.68;1.70;;;20.00;43.10;;;;;;2549795;54;21066;-67
2023/05/26 23:22:39;;;;;;;3.40;1.60;;;19.90;43.10;;;;;;2314826;54;21010;-65
2023/05/26 23:25:06;;;;;;;3.80;1.73;;;19.90;43.20;;;;;;2554662;53;21527;-68
2023/05/26 23:27:32;;;;;;;11.88;7.30;;;19.80;43.10;;;;;;2554148;53;21590;-66
2023/05/26 23:29:59;;;;;;;16.92;10.80;;;19.80;43.30;;;;;;2554675;53;20961;-70
2023/05/26 23:32:25;;;;;;;17.65;11.80;;;19.70;43.20;;;;;;2314374;54;21023;-66
2023/05/26 23:34:52;;;;;;;17.02;10.80;;;19.60;43.30;;;;;;2314024;54;20951;-67
2023/05/26 23:37:20;;;;;;;11.63;7.57;;;19.60;43.40;;;;;;2313583;54;20947;-67
2023/05/26 23:39:49;;;;;;;9.30;4.72;;;19.50;43.40;;;;;;2554871;53;20995;-69
2023/05/26 23:42:34;;;;;;;7.22;4.50;;;19.50;43.50;;;;;;2313705;54;20931;-67
2023/05/26 23:45:00;;;;;;;5.50;3.00;;;19.50;43.90;;;;;;2314394;54;20954;-66
2023/05/26 23:47:27;;;;;;;5.75;2.80;;;19.40;43.60;;;;;;2554926;54;20970;-66
2023/05/26 23:49:55;;;;;;;4.70;2.20;;;19.30;43.60;;;;;;2555074;53;20923;-66
2023/05/26 23:52:21;;;;;;;3.95;1.90;;;19.30;43.70;;;;;;2314415;54;20987;-71
2023/05/26 23:54:51;;;;;;;3.58;1.80;;;19.20;43.80;;;;;;2314787;54;21011;-67
2023/05/26 23:57:17;;;;;;;5.68;2.05;;;19.20;43.90;;;;;;2554465;53;20975;-66
2023/05/26 23:59:43;;;;;;;3.97;1.85;;;19.20;44.00;;;;;;2555072;53;20995;-66
